Time;durP1;ratioP1;P1;durP2;ratioP2;P2;SDS_P1;SDS_P2;PMS_P1;PMS_P2;Temp;Humidity;BMP_temperature;BMP_pressure;BME280_temperature;BME280_humidity;BME280_pressure;Samples;Min_cycle;Max_cycle;Signal;HPM_P1;HPM_P2
2024/03/26 00:02:02;;;;;;;8.57;3.70;;;3.00;99.90;;;;;;4964759;28;20057;-85
2024/03/26 00:04:28;;;;;;;9.60;4.00;;;3.00;99.90;;;;;;4969384;28;20050;-86
2024/03/26 00:06:54;;;;;;;12.53;3.83;;;2.90;99.90;;;;;;4964928;28;20034;-85
2024/03/26 00:09:19;;;;;;;4.97;3.63;;;2.90;99.90;;;;;;4966602;28;20031;-86
2024/03/26 00:11:45;;;;;;;5.80;3.40;;;2.90;99.90;;;;;;4964954;28;21181;-86
2024/03/26 00:14:11;;;;;;;5.77;3.30;;;2.80;99.90;;;;;;4965944;28;20030;-86
2024/03/26 00:16:36;;;;;;;8.73;3.83;;;2.80;99.90;;;;;;4966803;28;20030;-86
2024/03/26 00:19:02;;;;;;;8.03;3.87;;;2.80;99.90;;;;;;4949699;28;20125;-86
2024/03/26 00:21:27;;;;;;;9.67;3.83;;;2.80;99.90;;;;;;4967899;28;20102;-85
2024/03/26 00:23:53;;;;;;;8.23;3.80;;;2.70;99.90;;;;;;4967555;28;20027;-86
2024/03/26 00:26:18;;;;;;;7.17;3.80;;;2.70;99.90;;;;;;4964485;28;20043;-86
2024/03/26 00:28:44;;;;;;;10.50;4.23;;;2.70;99.90;;;;;;4967274;28;20039;-86
2024/03/26 00:31:09;;;;;;;7.53;3.90;;;2.70;99.90;;;;;;4965988;28;20031;-86
2024/03/26 00:33:35;;;;;;;10.30;3.80;;;2.60;99.90;;;;;;4967129;28;20149;-85
2024/03/26 00:36:00;;;;;;;6.40;3.80;;;2.50;99.90;;;;;;4965958;28;20031;-86
2024/03/26 00:38:32;;;;;;;7.13;4.00;;;2.50;99.90;;;;;;4947813;28;20031;-86
2024/03/26 00:40:58;;;;;;;9.67;4.13;;;2.50;99.90;;;;;;4947785;28;20023;-86
2024/03/26 00:43:24;;;;;;;7.77;4.23;;;2.40;99.90;;;;;;4967287;28;20059;-86
2024/03/26 00:45:49;;;;;;;10.30;3.90;;;2.30;99.90;;;;;;4965472;28;21245;-86
2024/03/26 00:48:15;;;;;;;9.63;3.87;;;2.30;99.90;;;;;;4965080;28;20030;-85
2024/03/26 00:50:40;;;;;;;8.67;4.23;;;2.30;99.90;;;;;;4963545;28;20027;-86
2024/03/26 00:53:06;;;;;;;7.57;3.90;;;2.20;99.90;;;;;;4966293;28;20079;-86
2024/03/26 00:55:31;;;;;;;7.83;4.50;;;2.20;99.90;;;;;;4966639;28;20038;-86
2024/03/26 00:57:57;;;;;;;11.00;4.20;;;2.20;99.90;;;;;;4966329;28;20030;-86
2024/03/26 01:00:23;;;;;;;8.53;3.83;;;2.20;99.90;;;;;;4965512;28;20050;-86
2024/03/26 01:02:48;;;;;;;7.93;4.27;;;2.10;99.90;;;;;;4964580;28;20058;-86
2024/03/26 01:05:14;;;;;;;8.97;3.93;;;2.20;99.90;;;;;;4966844;28;20037;-87
2024/03/26 01:07:39;;;;;;;8.03;3.97;;;2.10;99.90;;;;;;4968856;28;20118;-86
2024/03/26 01:10:06;;;;;;;7.93;4.03;;;2.10;99.90;;;;;;4968473;28;20144;-86
2024/03/26 01:12:32;;;;;;;8.73;4.20;;;2.00;99.90;;;;;;4965848;28;20031;-86
2024/03/26 01:14:57;;;;;;;8.80;4.17;;;2.10;99.90;;;;;;4964184;28;20053;-86
2024/03/26 01:17:23;;;;;;;8.83;4.17;;;2.00;99.90;;;;;;4965533;28;20039;-86
2024/03/26 01:19:49;;;;;;;8.87;3.77;;;2.00;99.90;;;;;;4967928;28;20041;-85
2024/03/26 01:22:14;;;;;;;9.50;3.97;;;2.00;99.90;;;;;;4967571;28;20146;-86
2024/03/26 01:24:40;;;;;;;7.50;3.97;;;2.00;99.90;;;;;;4968264;28;20606;-86
2024/03/26 01:27:06;;;;;;;10.97;4.37;;;2.00;99.90;;;;;;4967349;28;20042;-86
2024/03/26 01:29:31;;;;;;;7.30;4.20;;;1.90;99.90;;;;;;4972036;28;20091;-86
2024/03/26 01:31:57;;;;;;;9.23;4.00;;;1.90;99.90;;;;;;4969644;28;20038;-86
2024/03/26 01:34:22;;;;;;;7.63;3.90;;;1.90;99.90;;;;;;4970119;28;20066;-86
2024/03/26 01:36:48;;;;;;;8.93;4.03;;;1.90;99.90;;;;;;4970594;28;20031;-86
2024/03/26 01:39:13;;;;;;;7.40;3.97;;;1.90;99.90;;;;;;4967149;28;20050;-86
2024/03/26 01:41:39;;;;;;;7.23;4.43;;;1.80;99.90;;;;;;4967867;28;20023;-86
2024/03/26 01:44:08;;;;;;;9.50;4.07;;;1.80;99.90;;;;;;4967839;28;20110;-85
2024/03/26 01:46:36;;;;;;;7.77;4.50;;;1.80;99.90;;;;;;4970555;28;20023;-86
2024/03/26 01:49:04;;;;;;;7.70;4.17;;;1.80;99.90;;;;;;4969755;28;20059;-86
2024/03/26 01:51:31;;;;;;;7.70;4.40;;;1.70;99.90;;;;;;4970384;28;20026;-86
2024/03/26 01:53:58;;;;;;;7.30;4.20;;;1.70;99.90;;;;;;4966532;28;20027;-86
2024/03/26 01:56:24;;;;;;;8.97;4.57;;;1.60;99.90;;;;;;4968314;28;20054;-86
2024/03/26 01:58:51;;;;;;;9.77;4.57;;;1.60;99.90;;;;;;4970821;28;20055;-86
2024/03/26 02:01:19;;;;;;;6.67;3.97;;;1.60;99.90;;;;;;4969128;28;20525;-86
2024/03/26 02:03:44;;;;;;;8.53;4.40;;;1.60;99.90;;;;;;4953312;28;20039;-86
2024/03/26 02:06:10;;;;;;;9.07;4.27;;;1.60;99.90;;;;;;4967639;28;20039;-85
2024/03/26 02:08:35;;;;;;;6.97;4.10;;;1.50;99.90;;;;;;4966648;28;20047;-86
2024/03/26 02:11:02;;;;;;;8.87;4.30;;;1.50;99.90;;;;;;4970376;28;20023;-86
2024/03/26 02:13:28;;;;;;;7.70;4.60;;;1.50;99.90;;;;;;4968385;28;20106;-85
2024/03/26 02:15:53;;;;;;;9.57;4.67;;;1.50;99.90;;;;;;4969174;28;20740;-86
2024/03/26 02:18:19;;;;;;;8.80;4.30;;;1.50;99.90;;;;;;4968410;28;20035;-86
2024/03/26 02:20:44;;;;;;;10.27;4.47;;;1.40;99.90;;;;;;4966912;28;20061;-86
2024/03/26 02:23:10;;;;;;;12.13;4.87;;;1.40;99.90;;;;;;4967878;28;20027;-86
2024/03/26 02:25:35;;;;;;;9.70;5.30;;;1.40;99.90;;;;;;4968254;28;20082;-87
2024/03/26 02:28:01;;;;;;;14.00;6.20;;;1.40;99.90;;;;;;4966085;28;20049;-86
2024/03/26 02:30:29;;;;;;;10.90;5.40;;;1.30;99.90;;;;;;4967483;28;20140;-86
2024/03/26 02:32:54;;;;;;;9.30;5.20;;;1.30;99.90;;;;;;4967142;28;20058;-86
2024/03/26 02:35:20;;;;;;;10.50;5.57;;;1.30;99.90;;;;;;4967301;28;20054;-86
2024/03/26 02:37:45;;;;;;;10.13;5.23;;;1.30;99.90;;;;;;4970047;28;20054;-86
2024/03/26 02:40:11;;;;;;;8.93;4.87;;;1.20;99.90;;;;;;4971187;28;20065;-86
2024/03/26 02:42:38;;;;;;;10.63;5.80;;;1.20;99.90;;;;;;4967331;28;20043;-86
2024/03/26 02:45:04;;;;;;;14.27;5.80;;;1.20;99.90;;;;;;4966659;28;20058;-86
2024/03/26 02:47:29;;;;;;;12.80;5.80;;;1.20;99.90;;;;;;4968161;28;20059;-86
2024/03/26 02:49:55;;;;;;;11.17;5.73;;;1.20;99.90;;;;;;4968902;28;20057;-86
2024/03/26 02:52:20;;;;;;;11.67;6.30;;;1.20;99.90;;;;;;4968971;28;20035;-86
2024/03/26 02:54:46;;;;;;;12.40;5.70;;;1.10;99.90;;;;;;4966060;28;20042;-86
2024/03/26 02:57:11;;;;;;;11.87;5.10;;;1.20;99.90;;;;;;4966546;28;20050;-86
2024/03/26 02:59:37;;;;;;;12.20;5.30;;;1.10;99.90;;;;;;4966151;28;20027;-86
2024/03/26 03:02:02;;;;;;;17.53;5.87;;;1.10;99.90;;;;;;4965610;28;20136;-86
2024/03/26 03:04:28;;;;;;;10.60;5.07;;;1.10;99.90;;;;;;4966127;28;20031;-86
2024/03/26 03:06:53;;;;;;;9.50;5.27;;;1.10;99.90;;;;;;4964849;28;20031;-86
2024/03/26 03:09:19;;;;;;;10.27;5.37;;;1.00;99.90;;;;;;4967718;28;20160;-86
2024/03/26 03:11:45;;;;;;;11.43;5.23;;;1.00;99.90;;;;;;4965888;28;20034;-86
2024/03/26 03:14:10;;;;;;;10.67;5.60;;;1.00;99.90;;;;;;4967535;28;20101;-86
2024/03/26 03:16:36;;;;;;;9.33;5.30;;;1.00;99.90;;;;;;4966960;28;20415;-86
2024/03/26 03:19:02;;;;;;;12.17;5.10;;;0.90;99.90;;;;;;4965157;28;20031;-86
2024/03/26 03:21:27;;;;;;;8.33;5.20;;;0.90;99.90;;;;;;4966260;28;20086;-86
2024/03/26 03:23:53;;;;;;;11.83;5.70;;;0.80;99.90;;;;;;4965883;28;20014;-86
2024/03/26 03:26:18;;;;;;;14.00;5.50;;;0.80;99.90;;;;;;4964890;28;20033;-86
2024/03/26 03:28:44;;;;;;;10.23;5.33;;;0.80;99.90;;;;;;4968150;28;20038;-86
2024/03/26 03:31:09;;;;;;;16.63;5.70;;;0.80;99.90;;;;;;4966170;28;20120;-86
2024/03/26 03:33:35;;;;;;;11.53;4.90;;;0.70;99.90;;;;;;4966508;28;20065;-86
2024/03/26 03:36:02;;;;;;;14.73;5.50;;;0.70;99.90;;;;;;4965020;28;20026;-86
2024/03/26 03:38:28;;;;;;;12.77;5.93;;;0.60;99.90;;;;;;4966545;28;20030;-86
2024/03/26 03:40:53;;;;;;;10.60;4.77;;;0.60;99.90;;;;;;4966616;28;20305;-86
2024/03/26 03:43:19;;;;;;;9.17;4.57;;;0.60;99.90;;;;;;4964639;28;20075;-86
2024/03/26 03:45:44;;;;;;;12.30;5.77;;;0.60;99.90;;;;;;4964217;28;20081;-86
2024/03/26 03:48:10;;;;;;;14.47;5.83;;;0.60;99.90;;;;;;4963281;28;20027;-86
2024/03/26 03:50:35;;;;;;;10.80;5.50;;;0.60;99.90;;;;;;4962072;28;20053;-86
2024/03/26 03:53:01;;;;;;;12.10;5.63;;;0.50;99.90;;;;;;4966817;28;20049;-86
2024/03/26 03:55:27;;;;;;;10.53;5.60;;;0.50;99.90;;;;;;4965986;28;20054;-87
2024/03/26 03:57:53;;;;;;;12.93;6.00;;;0.50;99.90;;;;;;4968145;28;20019;-87
2024/03/26 04:00:18;;;;;;;12.27;5.50;;;0.50;99.90;;;;;;4965166;28;20111;-87
2024/03/26 04:02:44;;;;;;;11.63;5.83;;;0.50;99.90;;;;;;4963907;28;20126;-86
2024/03/26 04:05:09;;;;;;;13.13;5.93;;;0.50;99.90;;;;;;4964998;28;20125;-87
2024/03/26 04:07:35;;;;;;;10.03;5.93;;;0.40;99.90;;;;;;4963819;28;20026;-87
2024/03/26 04:10:02;;;;;;;9.70;5.37;;;0.40;99.90;;;;;;4964842;28;20030;-87
2024/03/26 04:12:27;;;;;;;9.67;6.07;;;0.40;99.90;;;;;;4963638;28;20023;-87
2024/03/26 04:14:53;;;;;;;9.10;5.40;;;0.40;99.90;;;;;;4961807;28;20380;-86
2024/03/26 04:17:19;;;;;;;13.57;5.77;;;0.30;99.90;;;;;;4963741;28;20031;-87
2024/03/26 04:19:45;;;;;;;10.47;5.90;;;0.20;99.90;;;;;;4962652;28;20031;-87
2024/03/26 04:22:10;;;;;;;12.03;6.23;;;0.20;99.90;;;;;;4966645;28;20035;-86
2024/03/26 04:24:36;;;;;;;10.37;5.70;;;0.20;99.90;;;;;;4964010;28;20039;-86
2024/03/26 04:27:01;;;;;;;7.67;5.07;;;0.20;99.90;;;;;;4961531;28;20026;-87
2024/03/26 04:29:27;;;;;;;9.37;5.60;;;0.20;99.90;;;;;;4963304;28;20033;-87
2024/03/26 04:31:53;;;;;;;9.50;4.83;;;0.10;99.90;;;;;;4963264;28;20517;-87
2024/03/26 04:34:19;;;;;;;9.40;5.73;;;0.20;99.90;;;;;;4961434;28;20039;-86
2024/03/26 04:36:45;;;;;;;8.70;5.40;;;0.10;99.90;;;;;;4960435;28;20130;-87
2024/03/26 04:39:11;;;;;;;14.47;6.97;;;0.10;99.90;;;;;;4960931;28;20039;-87
2024/03/26 04:41:37;;;;;;;42.83;17.30;;;0.10;99.90;;;;;;4961656;28;20402;-87
2024/03/26 04:44:03;;;;;;;47.37;18.37;;;0.10;99.90;;;;;;4964472;28;20042;-86
2024/03/26 04:46:30;;;;;;;35.40;18.43;;;0.10;99.90;;;;;;4963515;28;20099;-87
2024/03/26 04:48:55;;;;;;;15.13;7.60;;;0.10;99.90;;;;;;4963101;28;20074;-87
2024/03/26 04:51:21;;;;;;;13.93;6.40;;;0.10;99.90;;;;;;4961968;28;20031;-87
2024/03/26 04:53:48;;;;;;;16.07;7.57;;;0.10;99.90;;;;;;4961807;28;20038;-87
2024/03/26 04:56:14;;;;;;;11.27;5.13;;;0.10;99.90;;;;;;4961426;28;20026;-86
2024/03/26 04:58:40;;;;;;;14.90;5.90;;;0.10;99.90;;;;;;4945955;28;20021;-86
2024/03/26 05:01:05;;;;;;;10.80;5.40;;;0.10;99.90;;;;;;4962427;28;20107;-86
2024/03/26 05:03:31;;;;;;;10.37;5.67;;;0.20;99.90;;;;;;4963157;28;20129;-87
2024/03/26 05:05:57;;;;;;;9.20;5.27;;;0.10;99.90;;;;;;4964917;28;21135;-87
2024/03/26 05:08:22;;;;;;;13.60;5.97;;;0.10;99.90;;;;;;4965624;28;20484;-87
2024/03/26 05:10:48;;;;;;;12.67;5.73;;;0.20;99.90;;;;;;4967746;28;20197;-87
2024/03/26 05:13:14;;;;;;;8.57;5.27;;;0.10;99.90;;;;;;4967454;28;20018;-87
2024/03/26 05:15:40;;;;;;;13.10;6.90;;;0.20;99.90;;;;;;4952203;28;20035;-86
2024/03/26 05:18:06;;;;;;;10.93;6.73;;;0.10;99.90;;;;;;4966460;28;20036;-84
2024/03/26 05:20:32;;;;;;;13.70;7.27;;;0.20;99.90;;;;;;4966948;28;20030;-84
2024/03/26 05:22:57;;;;;;;12.10;6.83;;;0.20;99.90;;;;;;4949554;28;20028;-85
2024/03/26 05:25:23;;;;;;;18.10;9.50;;;0.20;99.90;;;;;;4965521;28;20549;-85
2024/03/26 05:27:48;;;;;;;14.67;7.70;;;0.20;99.90;;;;;;4967884;28;20038;-85
2024/03/26 05:30:14;;;;;;;13.33;6.00;;;0.30;99.90;;;;;;4967207;28;20023;-84
2024/03/26 05:32:40;;;;;;;10.40;6.40;;;0.30;99.90;;;;;;4951678;28;20034;-85
2024/03/26 05:35:05;;;;;;;9.93;5.87;;;0.30;99.90;;;;;;4949963;28;21345;-84
2024/03/26 05:37:32;;;;;;;10.40;6.83;;;0.40;99.90;;;;;;4966024;28;20071;-84
2024/03/26 05:39:57;;;;;;;11.43;7.70;;;0.40;99.90;;;;;;4967211;28;20077;-85
2024/03/26 05:42:23;;;;;;;15.40;7.47;;;0.40;99.90;;;;;;4967006;28;20035;-85
2024/03/26 05:44:48;;;;;;;9.07;5.10;;;0.50;99.90;;;;;;4966195;28;20246;-85
2024/03/26 05:47:14;;;;;;;13.90;8.53;;;0.50;99.90;;;;;;4944066;28;20081;-75
2024/03/26 05:49:39;;;;;;;12.60;5.37;;;0.60;99.90;;;;;;4957409;28;20168;-86
2024/03/26 05:52:05;;;;;;;15.83;7.70;;;0.60;99.90;;;;;;4968336;28;20304;-84
2024/03/26 05:54:30;;;;;;;15.77;6.40;;;0.70;99.90;;;;;;4965166;28;20030;-84
2024/03/26 05:56:56;;;;;;;11.10;5.70;;;0.70;99.90;;;;;;4962126;28;21317;-85
2024/03/26 05:59:22;;;;;;;13.27;7.00;;;0.80;99.90;;;;;;4961770;28;20907;-84
2024/03/26 06:01:47;;;;;;;15.90;6.87;;;0.80;99.90;;;;;;4965327;28;20142;-84
2024/03/26 06:04:13;;;;;;;16.77;6.53;;;0.90;99.90;;;;;;4963609;28;20047;-85
2024/03/26 06:06:39;;;;;;;13.47;7.60;;;1.00;99.90;;;;;;4964501;28;20042;-85
2024/03/26 06:09:04;;;;;;;13.87;9.33;;;1.10;99.90;;;;;;4965407;28;20031;-84
2024/03/26 06:11:31;;;;;;;15.93;8.90;;;1.20;99.90;;;;;;4965803;28;20037;-85
2024/03/26 06:13:56;;;;;;;13.57;6.20;;;1.30;99.90;;;;;;4965716;28;20498;-85
2024/03/26 06:16:22;;;;;;;16.67;6.57;;;1.40;99.90;;;;;;4964142;28;20098;-85
2024/03/26 06:18:47;;;;;;;16.17;6.00;;;1.50;99.90;;;;;;4965081;28;20027;-84
2024/03/26 06:21:13;;;;;;;12.43;5.80;;;1.60;99.90;;;;;;4962214;28;20098;-84
2024/03/26 06:23:38;;;;;;;10.67;5.60;;;1.70;99.90;;;;;;4964345;28;20078;-84
2024/03/26 06:26:04;;;;;;;13.47;5.60;;;1.70;99.90;;;;;;4962525;28;20051;-84
2024/03/26 06:28:29;;;;;;;16.43;6.27;;;1.80;99.90;;;;;;4963989;28;20069;-85
2024/03/26 06:30:55;;;;;;;16.40;5.20;;;1.90;99.90;;;;;;4964298;28;20043;-85
2024/03/26 06:33:20;;;;;;;10.10;6.00;;;1.90;99.90;;;;;;4962728;28;20058;-84
2024/03/26 06:35:46;;;;;;;9.23;5.37;;;1.90;99.90;;;;;;4947133;28;20019;-84
2024/03/26 06:38:12;;;;;;;8.03;5.60;;;2.00;99.90;;;;;;4948425;28;20057;-84
2024/03/26 06:40:38;;;;;;;8.83;5.23;;;2.10;99.90;;;;;;4964741;28;20439;-84
2024/03/26 06:43:04;;;;;;;9.37;5.37;;;2.20;99.90;;;;;;4962741;28;20033;-84
2024/03/26 06:45:30;;;;;;;11.97;5.50;;;2.20;99.90;;;;;;4963712;28;20065;-84
2024/03/26 06:47:56;;;;;;;10.17;6.40;;;2.30;99.90;;;;;;4964428;28;20022;-84
2024/03/26 06:50:21;;;;;;;10.00;4.93;;;2.30;99.90;;;;;;4961922;28;20505;-84
2024/03/26 06:52:50;;;;;;;9.83;5.40;;;2.40;99.90;;;;;;4964893;28;20093;-85
2024/03/26 06:55:21;;;;;;;12.07;5.40;;;2.40;99.90;;;;;;4960168;28;20086;-84
2024/03/26 06:57:46;;;;;;;17.10;8.87;;;2.40;99.90;;;;;;4960815;28;20131;-86
2024/03/26 07:00:14;;;;;;;15.57;6.23;;;2.50;99.90;;;;;;4962258;28;20033;-85
2024/03/26 07:02:40;;;;;;;10.90;5.63;;;2.60;99.90;;;;;;4947608;28;20728;-85
2024/03/26 07:05:06;;;;;;;12.13;6.60;;;2.70;99.90;;;;;;4960973;28;20042;-85
2024/03/26 07:07:33;;;;;;;15.47;5.73;;;2.80;99.90;;;;;;4961941;28;20035;-85
2024/03/26 07:09:59;;;;;;;11.73;5.47;;;2.90;99.90;;;;;;4963817;28;20133;-84
2024/03/26 07:12:25;;;;;;;10.43;5.83;;;3.00;99.90;;;;;;4961807;28;20145;-85
2024/03/26 07:14:51;;;;;;;12.60;5.57;;;3.20;99.90;;;;;;4961949;28;20031;-86
2024/03/26 07:17:16;;;;;;;14.70;5.30;;;3.30;99.90;;;;;;4962457;28;20031;-85
2024/03/26 07:19:42;;;;;;;13.53;5.80;;;3.50;99.90;;;;;;4964559;28;20030;-85
2024/03/26 07:22:08;;;;;;;9.90;4.97;;;3.60;99.90;;;;;;4945659;28;20034;-85
2024/03/26 07:24:35;;;;;;;12.37;6.63;;;3.80;99.90;;;;;;4960383;28;20039;-85
2024/03/26 07:27:00;;;;;;;15.03;9.80;;;3.90;99.90;;;;;;4954545;28;20026;-87
2024/03/26 07:29:26;;;;;;;11.73;6.70;;;4.00;99.90;;;;;;4956192;28;20491;-87
2024/03/26 07:31:52;;;;;;;11.37;5.20;;;4.10;99.90;;;;;;4957569;28;20023;-88
2024/03/26 07:34:17;;;;;;;7.97;6.03;;;4.20;99.90;;;;;;4960773;28;20027;-88
2024/03/26 07:36:43;;;;;;;10.13;5.33;;;4.30;99.90;;;;;;4958969;28;20018;-88
2024/03/26 07:39:19;;;;;;;9.73;5.17;;;4.40;99.90;;;;;;4952927;28;20028;-89
2024/03/26 07:41:46;;;;;;;17.23;6.10;;;4.50;99.90;;;;;;4952987;28;20098;-89
2024/03/26 07:44:11;;;;;;;18.67;5.00;;;4.50;99.90;;;;;;4953044;28;20049;-91
2024/03/26 07:46:37;;;;;;;12.17;4.83;;;4.60;99.90;;;;;;4954017;28;20022;-88
2024/03/26 07:49:04;;;;;;;15.30;6.30;;;4.70;99.90;;;;;;4935327;28;20093;-89
2024/03/26 07:51:30;;;;;;;15.37;5.60;;;4.90;99.90;;;;;;4956889;28;20035;-86
2024/03/26 07:53:56;;;;;;;16.13;5.93;;;5.00;99.90;;;;;;4936318;28;20063;-87
2024/03/26 07:56:22;;;;;;;13.13;5.50;;;5.20;99.90;;;;;;4956271;28;20113;-86
2024/03/26 07:58:47;;;;;;;13.50;7.67;;;5.30;99.90;;;;;;4954568;28;20069;-85
2024/03/26 08:01:13;;;;;;;11.27;5.43;;;5.40;99.90;;;;;;4954455;28;20027;-84
2024/03/26 08:03:38;;;;;;;12.10;6.03;;;5.50;99.90;;;;;;4952410;28;20035;-86
2024/03/26 08:06:04;;;;;;;13.87;5.40;;;5.50;99.90;;;;;;4950897;28;20031;-86
2024/03/26 08:08:30;;;;;;;7.27;4.90;;;5.60;99.90;;;;;;4952776;28;20027;-85
2024/03/26 08:10:56;;;;;;;7.63;4.63;;;5.70;99.90;;;;;;4952783;28;20141;-86
2024/03/26 08:13:21;;;;;;;12.13;5.00;;;5.90;99.90;;;;;;4951825;28;20033;-85
2024/03/26 08:15:47;;;;;;;12.17;4.83;;;6.00;99.90;;;;;;4952413;28;20113;-86
2024/03/26 08:18:12;;;;;;;11.47;5.03;;;6.20;99.90;;;;;;4955832;28;20031;-86
2024/03/26 08:20:40;;;;;;;8.53;4.77;;;6.30;99.90;;;;;;4939974;28;20031;-86
2024/03/26 08:23:06;;;;;;;246.23;90.27;;;6.40;99.90;;;;;;4957925;28;20411;-86
2024/03/26 08:25:32;;;;;;;75.27;37.40;;;6.60;99.90;;;;;;4935735;28;20200;-86
2024/03/26 08:27:58;;;;;;;13.83;6.37;;;6.80;99.90;;;;;;4936136;28;20751;-87
2024/03/26 08:30:24;;;;;;;12.57;5.20;;;6.90;99.90;;;;;;4952281;28;20046;-86
2024/03/26 08:32:49;;;;;;;15.17;5.57;;;7.00;99.90;;;;;;4937142;28;20038;-85
2024/03/26 08:35:15;;;;;;;11.60;4.67;;;7.20;99.90;;;;;;4952822;28;20031;-86
2024/03/26 08:37:40;;;;;;;13.17;4.83;;;7.30;99.90;;;;;;4956790;28;20031;-86
2024/03/26 08:40:08;;;;;;;9.50;4.80;;;7.40;99.90;;;;;;4958201;28;20059;-85
2024/03/26 08:42:35;;;;;;;8.23;4.50;;;7.60;99.90;;;;;;4958589;28;20070;-86
2024/03/26 08:45:01;;;;;;;12.27;4.90;;;7.80;99.90;;;;;;4957088;28;20050;-86
2024/03/26 08:47:27;;;;;;;13.10;5.20;;;8.00;99.90;;;;;;4959614;28;20069;-86
2024/03/26 08:49:53;;;;;;;9.60;4.50;;;8.10;99.90;;;;;;4958370;28;20563;-85
2024/03/26 08:52:18;;;;;;;7.93;5.23;;;8.20;99.90;;;;;;4958570;28;20436;-86
2024/03/26 08:54:44;;;;;;;9.90;4.30;;;8.30;99.90;;;;;;4957702;28;20087;-86
2024/03/26 08:57:09;;;;;;;8.43;4.17;;;8.50;99.90;;;;;;4956637;28;20144;-85
2024/03/26 08:59:37;;;;;;;6.33;3.67;;;8.60;99.90;;;;;;4934921;28;20030;-86
2024/03/26 09:02:03;;;;;;;12.47;4.17;;;8.80;99.90;;;;;;4955739;28;20045;-88
2024/03/26 09:04:28;;;;;;;7.90;3.57;;;9.00;99.90;;;;;;4957062;28;20503;-85
2024/03/26 09:06:54;;;;;;;11.23;3.70;;;9.20;99.90;;;;;;4956927;28;20027;-86
2024/03/26 09:09:19;;;;;;;12.10;3.57;;;9.30;99.90;;;;;;4955749;28;21435;-86
2024/03/26 09:11:45;;;;;;;9.87;3.30;;;9.50;99.90;;;;;;4956457;28;20019;-88
2024/03/26 09:14:10;;;;;;;12.60;2.93;;;9.70;99.90;;;;;;4951457;28;20760;-87
2024/03/26 09:16:36;;;;;;;13.90;3.43;;;10.00;99.90;;;;;;4953018;28;20492;-86
2024/03/26 09:19:02;;;;;;;12.23;5.07;;;10.10;99.90;;;;;;4937336;28;20118;-86
2024/03/26 09:21:28;;;;;;;9.87;3.27;;;10.10;99.90;;;;;;4955084;28;20051;-86
2024/03/26 09:23:53;;;;;;;4.23;2.70;;;10.40;99.90;;;;;;4955605;28;20035;-87
2024/03/26 09:26:19;;;;;;;5.70;2.97;;;10.50;99.90;;;;;;4956699;28;20023;-85
2024/03/26 09:28:45;;;;;;;6.87;2.97;;;10.70;99.90;;;;;;4954246;28;20098;-86
2024/03/26 09:31:10;;;;;;;8.37;3.37;;;10.90;99.90;;;;;;4939405;28;20459;-86
2024/03/26 09:33:36;;;;;;;9.27;3.20;;;11.20;99.90;;;;;;4939522;28;20038;-86
2024/03/26 09:36:01;;;;;;;7.60;2.50;;;11.30;99.90;;;;;;4955201;28;20034;-86
2024/03/26 09:38:27;;;;;;;6.53;2.92;;;11.60;99.90;;;;;;4955530;28;21398;-85
2024/03/26 09:41:00;;;;;;;8.53;2.90;;;11.80;99.90;;;;;;4955843;28;20027;-86
2024/03/26 09:43:28;;;;;;;9.80;4.60;;;11.70;99.90;;;;;;4955659;28;20063;-87
2024/03/26 09:45:56;;;;;;;6.45;3.63;;;11.80;99.90;;;;;;4954600;28;20023;-86
2024/03/26 09:48:22;;;;;;;7.55;3.38;;;11.90;99.90;;;;;;4953402;28;20029;-86
2024/03/26 09:50:49;;;;;;;8.93;2.75;;;12.00;99.90;;;;;;4956689;28;20028;-86
2024/03/26 09:53:17;;;;;;;8.10;3.50;;;12.20;99.90;;;;;;4953988;28;20072;-75
2024/03/26 09:55:42;;;;;;;5.57;3.08;;;12.30;99.90;;;;;;4953603;28;20772;-72
2024/03/26 09:58:08;;;;;;;7.22;2.88;;;12.50;99.90;;;;;;4955335;28;20042;-86
2024/03/26 10:00:35;;;;;;;4.88;2.53;;;12.50;99.90;;;;;;4955718;28;20027;-85
2024/03/26 10:03:04;;;;;;;8.63;3.45;;;12.70;99.90;;;;;;4956988;28;20031;-85
2024/03/26 10:05:30;;;;;;;5.20;3.00;;;12.80;99.90;;;;;;4953816;28;20750;-85
2024/03/26 10:07:56;;;;;;;7.18;3.00;;;13.00;99.90;;;;;;4955613;28;20088;-86
2024/03/26 10:10:22;;;;;;;;;;;13.00;99.90;;;;;;4953612;28;20470;-85
2024/03/26 10:12:48;;;;;;;7.50;2.90;;;12.90;99.90;;;;;;4955381;28;20054;-85
2024/03/26 10:15:13;;;;;;;;;;;12.80;99.90;;;;;;4955432;28;20048;-85
2024/03/26 10:17:39;;;;;;;;;;;12.70;99.90;;;;;;4955045;28;20055;-85
2024/03/26 10:20:05;;;;;;;;;;;12.60;99.90;;;;;;4938089;28;20027;-86
2024/03/26 10:22:30;;;;;;;;;;;12.50;99.90;;;;;;4956451;28;20051;-85
2024/03/26 10:24:56;;;;;;;;;;;12.40;99.90;;;;;;4954782;28;20039;-86
2024/03/26 10:27:21;;;;;;;;;;;12.20;99.90;;;;;;4955864;28;20027;-86
2024/03/26 10:29:48;;;;;;;;;;;12.20;99.90;;;;;;4958143;28;21033;-86
2024/03/26 10:32:16;;;;;;;;;;;12.10;99.90;;;;;;4957290;28;20039;-85
2024/03/26 10:34:42;;;;;;;;;;;12.10;99.90;;;;;;4956200;28;20035;-85
2024/03/26 10:37:08;;;;;;;;;;;12.10;99.90;;;;;;4955433;28;20811;-85
2024/03/26 10:39:35;;;;;;;;;;;12.10;99.90;;;;;;4955971;28;20058;-86
2024/03/26 10:42:01;;;;;;;;;;;12.30;99.90;;;;;;4956514;28;20407;-85
2024/03/26 10:44:27;;;;;;;;;;;12.40;99.90;;;;;;4955862;28;20078;-86
2024/03/26 10:46:53;;;;;;;9.55;2.95;;;12.60;99.90;;;;;;4936841;28;20034;-85
2024/03/26 10:49:20;;;;;;;5.60;2.90;;;12.70;99.90;;;;;;4955092;28;20023;-85
2024/03/26 10:51:46;;;;;;;5.10;3.35;;;12.80;99.90;;;;;;4956152;28;19910;-85
2024/03/26 10:54:12;;;;;;;6.20;3.20;;;12.90;99.90;;;;;;4955379;28;20073;-86
2024/03/26 10:56:38;;;;;;;;;;;12.90;99.90;;;;;;4954467;28;20190;-85
2024/03/26 10:59:04;;;;;;;7.20;3.50;;;13.00;99.90;;;;;;4938376;28;20075;-85
2024/03/26 11:01:30;;;;;;;4.50;2.80;;;13.00;99.90;;;;;;4956847;28;20027;-86
2024/03/26 11:03:58;;;;;;;8.70;2.90;;;13.00;99.90;;;;;;4956695;28;20056;-85
2024/03/26 11:06:24;;;;;;;6.50;3.30;;;13.00;99.90;;;;;;4958120;28;19922;-86
2024/03/26 11:09:01;;;;;;;6.68;2.80;;;13.20;99.90;;;;;;4957118;28;20403;-85
2024/03/26 11:11:34;;;;;;;8.30;4.55;;;13.30;99.90;;;;;;4959092;28;20026;-86
2024/03/26 11:13:59;;;;;;;8.10;3.55;;;13.30;99.90;;;;;;4961310;28;20034;-86
2024/03/26 11:16:39;;;;;;;8.32;6.38;;;13.40;99.90;;;;;;4956364;28;20413;-85
2024/03/26 11:19:17;;;;;;;7.43;3.60;;;13.50;99.90;;;;;;4956228;28;20081;-85
2024/03/26 11:21:43;;;;;;;8.77;4.15;;;13.80;99.90;;;;;;4956077;28;20109;-85
2024/03/26 11:24:32;;;;;;;5.53;3.20;;;13.90;99.90;;;;;;4956850;28;20041;-85
2024/03/26 11:26:59;;;;;;;3.60;2.58;;;14.20;99.90;;;;;;4955352;28;20030;-84
2024/03/26 11:29:26;;;;;;;8.25;3.05;;;14.40;99.90;;;;;;4956560;28;20078;-86
2024/03/26 11:31:51;;;;;;;5.32;2.35;;;14.60;99.90;;;;;;4953521;28;20039;-85
2024/03/26 11:34:20;;;;;;;5.10;2.40;;;14.70;99.90;;;;;;4955325;28;20026;-86
2024/03/26 11:36:47;;;;;;;4.50;2.50;;;14.90;99.90;;;;;;4954500;28;20069;-86
2024/03/26 11:39:15;;;;;;;;;;;15.20;99.90;;;;;;4954573;28;20044;-85
2024/03/26 11:41:41;;;;;;;;;;;15.20;99.90;;;;;;4954265;28;20500;-86
2024/03/26 11:44:07;;;;;;;;;;;15.40;99.90;;;;;;4954652;28;20026;-86
2024/03/26 11:46:33;;;;;;;6.30;2.60;;;15.40;99.90;;;;;;4954268;28;20416;-85
2024/03/26 11:49:03;;;;;;;;;;;15.70;99.90;;;;;;4953341;28;20069;-86
2024/03/26 11:51:29;;;;;;;;;;;15.70;99.90;;;;;;4954771;28;20518;-85
2024/03/26 11:53:55;;;;;;;;;;;15.60;99.90;;;;;;4957156;28;20113;-86
2024/03/26 11:56:20;;;;;;;;;;;15.60;99.90;;;;;;4956567;28;20046;-86
2024/03/26 11:58:47;;;;;;;;;;;15.60;99.90;;;;;;4956073;28;20410;-85
2024/03/26 12:01:12;;;;;;;;;;;15.80;99.90;;;;;;4952980;28;20175;-85
2024/03/26 12:03:49;;;;;;;;;;;15.80;99.90;;;;;;4954721;28;20133;-87
2024/03/26 12:06:14;;;;;;;;;;;15.90;99.90;;;;;;4952078;28;20051;-85
2024/03/26 12:08:40;;;;;;;;;;;15.80;99.90;;;;;;4952519;28;20262;-86
2024/03/26 12:11:05;;;;;;;;;;;15.80;99.90;;;;;;4958757;28;20130;-82
2024/03/26 12:13:31;;;;;;;;;;;15.80;99.90;;;;;;4937958;28;20648;-72
2024/03/26 12:15:56;;;;;;;;;;;15.90;99.90;;;;;;4950710;28;20045;-87
2024/03/26 12:18:22;;;;;;;;;;;15.90;99.90;;;;;;4954170;28;20098;-87
2024/03/26 12:20:47;;;;;;;;;;;16.00;99.90;;;;;;4953118;28;20101;-86
2024/03/26 12:23:13;;;;;;;6.60;2.70;;;16.20;99.90;;;;;;4953758;28;20525;-88
2024/03/26 12:25:38;;;;;;;;;;;16.30;99.90;;;;;;4953088;28;20055;-87
2024/03/26 12:28:04;;;;;;;;;;;16.60;99.90;;;;;;4952847;28;20041;-87
2024/03/26 12:30:34;;;;;;;;;;;16.70;99.90;;;;;;4953773;28;20060;-87
2024/03/26 12:32:59;;;;;;;;;;;16.70;99.90;;;;;;4954506;28;20033;-87
2024/03/26 12:35:25;;;;;;;;;;;16.80;99.90;;;;;;4955599;28;20029;-87
2024/03/26 12:37:50;;;;;;;;;;;16.90;99.90;;;;;;4936221;28;20052;-88
2024/03/26 12:40:16;;;;;;;;;;;16.90;99.90;;;;;;4954699;28;20488;-87
2024/03/26 12:42:42;;;;;;;;;;;17.10;99.90;;;;;;4955005;28;20765;-87
2024/03/26 12:45:07;;;;;;;5.60;2.40;;;17.00;99.90;;;;;;4953239;28;20043;-88
2024/03/26 12:47:33;;;;;;;;;;;17.10;99.90;;;;;;4955263;28;19925;-89
2024/03/26 12:49:58;;;;;;;;;;;17.00;99.90;;;;;;4953965;28;20071;-88
2024/03/26 12:52:24;;;;;;;;;;;16.90;99.90;;;;;;4953897;28;21398;-87
2024/03/26 12:54:49;;;;;;;;;;;16.70;99.90;;;;;;4951240;28;20094;-89